Airfield :
LOGIN :

Register | Disclaimer

   EN    FR    IT 

 










Legend :    VFR   Marginal VFR   IFR   Intensive IFR   Very Intensive IFR
Visi :
Ceiling :
>= 8 km
>= 3000ft
5 to 8 km
1000 to 3000 ft
1500m to 5 km
500 to 1000 ft
800 to 1500m
200 to 500 ft
< 800m
< 200 ft
Symbols :   Thunderstorms  Fog  Heavy snow  Heavy precipitations  Wind > 20 kt
SIGMETs :     Misc.  Thunderstorms  Icing  Turbulence  Mountain Waves  Volcanic Ashes






- Airport Elevation : 1649 ft
- IATA code : HHN


EDFH - Frankfurt-Hahn Rhineland-Palatinate

CURRENT METAR :
  • 181950Z 27004KT 8000 FEW029 BKN049 07/05 Q1020

EXPIRED METARs :
  • 181920Z 27003KT 240V330 8000 -DZ BKN030 07/05 Q1020
  • 181850Z 32002KT 9000 -RA FEW003 BKN028 07/05 Q1020
  • 181820Z VRB02KT 9999 SCT028 08/04 Q1020
  • 181750Z VRB02KT 9999 FEW030 SCT042 08/04 Q1020
  • 181720Z VRB01KT 9999 FEW022 SCT044 09/04 Q1020

TAF TAF EDFH
Valid from the 18 at 18:00 until the 19 at 18:00 UTC


181700Z 1818/1918 34005KT 9999 BKN025
TEMPO 1900/1910 2000 RADZ BR OVC003
TEMPO 1910/1917 SHRA BKN020CB
BECMG 1912/1914 05006KT



MET'MAP, your aeronautical weather chart ! - Copyright ORBIFLY December 2007 - Disclaimer

ORBIFLY MET'MAP TEAM :

Programming & Development : Alexandra Zaïnal
Concept & original design : Baudouin d'Aumeries
Assistance for programming : Marc-Olivier Méhu
Technical & hardware support : Manuel Goepfert

Contact : metmap@orbifly.com




SOURCES & CREDITS :

   NOAA